Terminal Aerodrome Forecast
Issued by NWS

Home | Current Version | Previous Version | Text Only | Print | Product List | Glossary On
Versions: 1 2 3 4 5 6 7 8 9 10 11 12 13 14 15 16 17 18 19 20 21
188
FTUS44 KBMX 251228 AAA
TAFANB
TAF AMD
KANB 251228Z 2512/2612 00000KT 1/2SM FG BKN003
     FM251400 00000KT P6SM FEW008
     FM251600 25006KT P6SM SCT040
     FM260100 00000KT P6SM SKC=

USA.gov is the U.S. government's official web portal to all federal, state and local government web resources and services.